createdAt,value
2023-05-16T00:01:49.293Z,9.55
2023-05-16T00:04:16.230Z,9.49
2023-05-16T00:06:42.810Z,9.47
2023-05-16T00:09:09.350Z,9.45
2023-05-16T00:11:35.885Z,9.43
2023-05-16T00:14:02.721Z,9.48
2023-05-16T00:16:30.239Z,9.51
2023-05-16T00:18:57.910Z,9.52
2023-05-16T00:21:25.122Z,9.51
2023-05-16T00:23:52.834Z,9.52
2023-05-16T00:26:19.484Z,9.49
2023-05-16T00:28:46.276Z,9.42
2023-05-16T00:31:12.853Z,9.36
2023-05-16T00:33:39.398Z,9.32
2023-05-16T00:36:06.401Z,9.25
2023-05-16T00:38:34.544Z,9.22
2023-05-16T00:41:01.143Z,9.12
2023-05-16T00:43:27.715Z,9.08
2023-05-16T00:45:54.327Z,9.05
2023-05-16T00:48:21.020Z,8.97
2023-05-16T00:50:47.672Z,8.90
2023-05-16T00:53:14.224Z,8.85
2023-05-16T00:55:41.110Z,8.77
2023-05-16T00:58:07.878Z,8.77
2023-05-16T01:00:34.756Z,8.75
2023-05-16T01:03:01.597Z,8.71
2023-05-16T01:05:29.432Z,8.70
2023-05-16T01:07:56.426Z,8.66
2023-05-16T01:10:23.697Z,8.64
2023-05-16T01:13:01.209Z,8.59
2023-05-16T01:15:39.747Z,8.53
2023-05-16T01:18:44.685Z,8.47
2023-05-16T01:21:35.779Z,8.42
2023-05-16T01:24:16.050Z,8.35
2023-05-16T01:26:44.135Z,8.32
2023-05-16T01:29:10.874Z,8.27
2023-05-16T01:31:37.427Z,8.26
2023-05-16T01:34:04.505Z,8.24
2023-05-16T01:36:44.791Z,8.19
2023-05-16T01:42:19.640Z,8.11
2023-05-16T01:45:12.997Z,8.04
2023-05-16T01:47:43.351Z,8.00
2023-05-16T01:50:20.813Z,7.96
2023-05-16T01:52:52.900Z,7.94
2023-05-16T01:55:48.679Z,7.93
2023-05-16T01:58:19.264Z,7.85
2023-05-16T02:00:46.056Z,7.82
2023-05-16T02:03:12.644Z,7.77
2023-05-16T02:05:39.561Z,7.74
2023-05-16T02:08:06.507Z,7.69
2023-05-16T02:10:33.077Z,7.72
2023-05-16T02:12:59.727Z,7.68
2023-05-16T02:15:26.612Z,7.68
2023-05-16T02:17:53.695Z,7.62
2023-05-16T02:20:20.340Z,7.59
2023-05-16T02:22:47.597Z,7.57
2023-05-16T02:25:15.504Z,7.55
2023-05-16T02:27:43.255Z,7.55
2023-05-16T02:30:12.923Z,7.52
2023-05-16T02:32:40.653Z,7.51
2023-05-16T02:35:08.323Z,7.47
2023-05-16T02:37:35.163Z,7.49
2023-05-16T02:40:02.447Z,7.45
2023-05-16T02:42:29.382Z,7.46
2023-05-16T02:47:37.120Z,7.41
2023-05-16T02:52:44.425Z,7.37
2023-05-16T03:00:37.568Z,7.28
2023-05-16T03:03:04.521Z,7.27
2023-05-16T03:05:31.806Z,7.24
2023-05-16T03:07:58.487Z,7.20
2023-05-16T03:10:25.301Z,7.16
2023-05-16T03:12:51.931Z,7.15
2023-05-16T03:15:18.699Z,7.14
2023-05-16T03:17:45.361Z,7.11
2023-05-16T03:20:12.296Z,7.08
2023-05-16T03:22:40.670Z,7.03
2023-05-16T03:25:07.956Z,7.02
2023-05-16T03:27:34.673Z,6.99
2023-05-16T03:30:01.222Z,6.97
2023-05-16T03:32:27.727Z,6.94
2023-05-16T03:34:54.228Z,6.93
2023-05-16T03:37:20.862Z,6.91
2023-05-16T03:39:47.461Z,6.87
2023-05-16T03:42:14.043Z,6.85
2023-05-16T03:44:41.406Z,6.85
2023-05-16T03:47:08.178Z,6.83
2023-05-16T03:49:37.053Z,6.82
2023-05-16T03:52:05.188Z,6.82
2023-05-16T03:54:31.918Z,6.84
2023-05-16T03:56:58.423Z,6.86
2023-05-16T03:59:25.194Z,6.87
2023-05-16T04:01:51.665Z,6.89
2023-05-16T04:04:18.496Z,6.90
2023-05-16T04:06:44.974Z,6.92
2023-05-16T04:09:12.045Z,6.93
2023-05-16T04:11:38.885Z,6.95
2023-05-16T04:14:05.532Z,6.95
2023-05-16T04:16:32.686Z,7.00
2023-05-16T04:18:59.932Z,7.02
2023-05-16T04:21:26.569Z,7.06
2023-05-16T04:23:53.147Z,7.10
2023-05-16T04:26:22.771Z,7.20
2023-05-16T04:28:49.399Z,7.28
2023-05-16T04:31:16.450Z,7.34
2023-05-16T04:33:43.182Z,7.42
2023-05-16T04:36:09.824Z,7.48
2023-05-16T04:38:36.797Z,7.56
2023-05-16T04:41:03.955Z,7.65
2023-05-16T04:43:30.574Z,7.72
2023-05-16T04:45:59.110Z,7.77
2023-05-16T04:48:25.902Z,8.20
2023-05-16T04:50:52.725Z,9.53
2023-05-16T04:53:19.176Z,10.89
2023-05-16T04:55:45.755Z,11.66
2023-05-16T04:58:12.537Z,12.27
2023-05-16T05:00:39.786Z,13.18
2023-05-16T05:03:06.662Z,14.17
2023-05-16T05:05:34.026Z,14.70
2023-05-16T05:08:02.278Z,14.08
2023-05-16T05:10:28.831Z,13.13
2023-05-16T05:12:55.677Z,13.68
2023-05-16T05:15:22.455Z,14.72
2023-05-16T05:17:49.135Z,14.82
2023-05-16T05:20:15.912Z,14.41
2023-05-16T05:22:42.706Z,13.67
2023-05-16T05:25:09.704Z,13.76
2023-05-16T05:27:36.372Z,13.36
2023-05-16T05:30:03.880Z,13.24
2023-05-16T05:32:31.302Z,13.85
2023-05-16T05:34:57.972Z,14.87
2023-05-16T05:37:25.450Z,15.26
2023-05-16T05:39:52.030Z,13.98
2023-05-16T05:42:18.648Z,12.99
2023-05-16T05:44:45.169Z,13.04
2023-05-16T05:47:12.042Z,14.56
2023-05-16T05:49:38.802Z,15.65
2023-05-16T05:52:05.526Z,16.89
2023-05-16T05:54:33.890Z,17.66
2023-05-16T05:57:00.663Z,17.99
2023-05-16T05:59:27.604Z,17.22
2023-05-16T06:01:54.109Z,17.63
2023-05-16T06:04:23.438Z,17.92
2023-05-16T06:06:49.971Z,17.75
2023-05-16T06:09:16.782Z,18.20
2023-05-16T06:11:45.877Z,18.23
2023-05-16T06:14:15.939Z,17.65
2023-05-16T06:16:42.544Z,18.05
2023-05-16T06:19:09.905Z,18.00
2023-05-16T06:21:36.560Z,17.69
2023-05-16T06:24:03.465Z,17.64
2023-05-16T06:26:30.002Z,17.76
2023-05-16T06:28:56.574Z,17.85
2023-05-16T06:31:23.177Z,18.21
2023-05-16T06:33:49.821Z,17.73
2023-05-16T06:36:16.420Z,17.51
2023-05-16T06:38:42.969Z,16.12
2023-05-16T06:41:09.483Z,15.92
2023-05-16T06:43:36.219Z,15.58
2023-05-16T06:46:03.987Z,15.54
2023-05-16T06:48:30.758Z,14.87
2023-05-16T06:50:57.674Z,14.82
2023-05-16T06:53:24.247Z,15.04
2023-05-16T06:55:51.322Z,15.08
2023-05-16T06:58:17.832Z,15.37
2023-05-16T07:00:44.564Z,16.44
2023-05-16T07:03:11.385Z,16.28
2023-05-16T07:05:37.929Z,16.40
2023-05-16T07:08:07.597Z,16.60
2023-05-16T07:10:34.718Z,16.62
2023-05-16T07:13:02.025Z,16.76
2023-05-16T07:15:28.822Z,16.95
2023-05-16T07:17:55.577Z,16.28
2023-05-16T07:20:22.195Z,15.80
2023-05-16T07:22:48.827Z,16.13
2023-05-16T07:25:16.161Z,16.15
2023-05-16T07:27:45.185Z,15.92
2023-05-16T07:30:16.361Z,15.79
2023-05-16T07:32:43.556Z,15.69
2023-05-16T07:35:10.888Z,15.60
2023-05-16T07:37:37.617Z,15.32
2023-05-16T07:40:04.708Z,14.77
2023-05-16T07:42:31.959Z,14.80
2023-05-16T07:44:58.856Z,15.23
2023-05-16T07:47:25.899Z,14.86
2023-05-16T07:49:52.790Z,15.02
2023-05-16T07:52:19.713Z,14.91
2023-05-16T07:54:47.780Z,15.11
2023-05-16T07:57:15.733Z,15.68
2023-05-16T07:59:43.091Z,15.64
2023-05-16T08:02:10.736Z,15.02
2023-05-16T08:04:37.797Z,14.36
2023-05-16T08:07:04.743Z,13.65
2023-05-16T08:09:31.391Z,13.13
2023-05-16T08:11:58.040Z,12.75
2023-05-16T08:14:24.644Z,12.52
2023-05-16T08:16:51.552Z,12.41
2023-05-16T08:19:18.213Z,12.39
2023-05-16T08:21:44.830Z,12.98
2023-05-16T08:24:12.170Z,13.46
2023-05-16T08:26:38.987Z,13.61
2023-05-16T08:29:05.585Z,13.94
2023-05-16T08:31:32.860Z,14.32
2023-05-16T08:34:02.143Z,14.55
2023-05-16T08:36:28.775Z,14.80
2023-05-16T08:38:55.559Z,15.14
2023-05-16T08:41:22.127Z,15.45
2023-05-16T08:43:49.055Z,15.58
2023-05-16T08:46:20.850Z,15.51
2023-05-16T08:48:49.240Z,14.84
2023-05-16T08:51:19.115Z,14.28
2023-05-16T08:53:52.415Z,13.99
2023-05-16T08:56:19.330Z,13.87
2023-05-16T08:58:46.617Z,14.30
2023-05-16T09:01:13.751Z,14.65
2023-05-16T09:03:41.005Z,15.10
2023-05-16T09:06:08.433Z,15.49
2023-05-16T09:08:35.147Z,15.40
2023-05-16T09:11:03.615Z,15.05
2023-05-16T09:13:30.135Z,14.77
2023-05-16T09:16:10.200Z,14.94
2023-05-16T09:18:37.951Z,15.20
2023-05-16T09:21:07.899Z,15.71
2023-05-16T09:23:37.107Z,15.86
2023-05-16T09:26:08.065Z,15.67
2023-05-16T09:28:37.963Z,15.55
2023-05-16T09:31:04.618Z,15.84
2023-05-16T09:33:31.276Z,15.65
2023-05-16T09:35:59.622Z,15.58
2023-05-16T09:38:27.755Z,15.94
2023-05-16T09:40:55.514Z,15.77
2023-05-16T09:43:25.367Z,15.69
2023-05-16T09:45:53.679Z,16.06
2023-05-16T09:48:21.686Z,16.61
2023-05-16T09:50:52.409Z,17.26
2023-05-16T09:53:27.057Z,17.02
2023-05-16T09:56:11.764Z,16.85
2023-05-16T09:58:39.908Z,16.65
2023-05-16T10:01:07.875Z,16.79
2023-05-16T10:03:36.712Z,16.82
2023-05-16T10:06:05.891Z,17.05
2023-05-16T10:08:37.362Z,17.45
2023-05-16T10:11:05.887Z,17.43
2023-05-16T10:13:34.869Z,17.26
2023-05-16T10:16:25.500Z,16.72
2023-05-16T10:18:52.552Z,16.92
2023-05-16T10:21:22.101Z,16.80
2023-05-16T10:23:51.696Z,16.50
2023-05-16T10:26:21.454Z,16.50
2023-05-16T10:28:49.283Z,17.09
2023-05-16T10:31:16.426Z,17.29
2023-05-16T10:33:43.311Z,17.02
2023-05-16T10:36:11.282Z,17.00
2023-05-16T10:38:38.960Z,16.96
2023-05-16T10:41:07.119Z,16.75
2023-05-16T10:43:33.945Z,17.00
2023-05-16T10:46:09.990Z,17.49
2023-05-16T10:48:39.139Z,18.13
2023-05-16T10:51:38.636Z,17.77
2023-05-16T10:54:10.683Z,17.61
2023-05-16T10:56:37.677Z,17.46
2023-05-16T10:59:05.059Z,17.17
2023-05-16T11:01:35.439Z,17.67
2023-05-16T11:04:05.877Z,18.24
2023-05-16T11:06:44.926Z,18.52
2023-05-16T11:09:11.635Z,18.49
2023-05-16T11:11:53.714Z,17.93
2023-05-16T11:14:20.444Z,17.60
2023-05-16T11:17:00.758Z,17.55
2023-05-16T11:19:34.844Z,17.41
2023-05-16T11:22:08.498Z,17.40
2023-05-16T11:24:36.978Z,17.14
2023-05-16T11:27:04.862Z,17.03
2023-05-16T11:29:33.842Z,16.89
2023-05-16T11:32:02.356Z,16.81
2023-05-16T11:34:31.212Z,16.74
2023-05-16T11:36:58.163Z,16.46
2023-05-16T11:39:25.213Z,16.48
2023-05-16T11:41:53.935Z,16.50
2023-05-16T11:44:20.633Z,16.44
2023-05-16T11:46:47.785Z,16.29
2023-05-16T11:49:14.921Z,16.22
2023-05-16T11:51:43.413Z,16.16
2023-05-16T11:54:10.536Z,15.85
2023-05-16T11:56:37.535Z,15.78
2023-05-16T11:59:04.522Z,15.87
2023-05-16T12:01:40.474Z,15.61
2023-05-16T12:04:12.503Z,15.36
2023-05-16T12:06:40.066Z,15.42
2023-05-16T12:09:11.178Z,15.42
2023-05-16T12:11:38.786Z,15.50
2023-05-16T12:14:10.417Z,15.74
2023-05-16T12:16:38.123Z,15.91
2023-05-16T12:19:08.419Z,16.08
2023-05-16T12:21:35.920Z,16.42
2023-05-16T12:24:02.623Z,16.43
2023-05-16T12:26:33.895Z,16.10
2023-05-16T12:29:03.604Z,15.86
2023-05-16T12:31:32.550Z,15.82
2023-05-16T12:33:59.733Z,15.90
2023-05-16T12:36:26.543Z,15.78
2023-05-16T12:38:53.744Z,15.82
2023-05-16T12:41:21.722Z,15.82
2023-05-16T12:43:49.243Z,15.80
2023-05-16T12:46:16.444Z,15.75
2023-05-16T12:48:44.251Z,15.66
2023-05-16T12:51:15.860Z,16.03
2023-05-16T12:53:57.644Z,16.30
2023-05-16T12:56:28.401Z,16.12
2023-05-16T12:58:55.394Z,16.05
2023-05-16T13:01:22.003Z,15.93
2023-05-16T13:03:48.787Z,15.80
2023-05-16T13:06:15.890Z,15.55
2023-05-16T13:08:42.672Z,15.62
2023-05-16T13:11:09.356Z,15.63
2023-05-16T13:13:36.777Z,15.60
2023-05-16T13:16:04.343Z,15.67
2023-05-16T13:18:31.600Z,15.85
2023-05-16T13:20:58.646Z,16.62
2023-05-16T13:23:25.269Z,16.55
2023-05-16T13:25:53.054Z,16.19
2023-05-16T13:28:19.633Z,15.76
2023-05-16T13:30:46.148Z,15.29
2023-05-16T13:33:12.826Z,15.01
2023-05-16T13:35:39.404Z,14.88
2023-05-16T13:38:05.972Z,14.85
2023-05-16T13:40:32.969Z,14.98
2023-05-16T13:43:01.029Z,15.04
2023-05-16T13:45:28.793Z,14.98
2023-05-16T13:47:55.994Z,15.13
2023-05-16T13:50:25.103Z,15.83
2023-05-16T13:52:52.311Z,16.21
2023-05-16T13:55:19.242Z,16.22
2023-05-16T13:57:46.127Z,15.95
2023-05-16T14:02:43.249Z,15.47
2023-05-16T14:05:10.419Z,15.44
2023-05-16T14:07:37.693Z,15.31
2023-05-16T14:10:06.735Z,15.22
2023-05-16T14:12:33.982Z,15.13
2023-05-16T14:15:00.851Z,15.03
2023-05-16T14:17:27.472Z,14.98
2023-05-16T14:19:54.038Z,15.03
2023-05-16T14:22:20.776Z,15.01
2023-05-16T14:24:47.398Z,14.84
2023-05-16T14:27:15.350Z,14.78
2023-05-16T14:29:42.083Z,14.84
2023-05-16T14:32:11.420Z,14.90
2023-05-16T14:34:38.058Z,15.01
2023-05-16T14:37:04.778Z,14.93
2023-05-16T14:39:31.469Z,14.91
2023-05-16T14:41:58.061Z,15.01
2023-05-16T14:44:25.155Z,14.97
2023-05-16T14:46:51.891Z,14.88
2023-05-16T14:49:18.432Z,14.77
2023-05-16T14:51:50.493Z,14.90
2023-05-16T14:54:17.097Z,14.81
2023-05-16T14:56:43.803Z,14.72
2023-05-16T14:59:10.310Z,14.72
2023-05-16T15:01:37.188Z,14.75
2023-05-16T15:04:03.836Z,14.72
2023-05-16T15:06:30.599Z,14.74
2023-05-16T15:08:57.186Z,14.76
2023-05-16T15:11:23.765Z,14.73
2023-05-16T15:13:50.433Z,14.76
2023-05-16T15:16:17.054Z,15.00
2023-05-16T15:18:43.912Z,15.08
2023-05-16T15:21:10.542Z,15.11
2023-05-16T15:23:37.369Z,15.18
2023-05-16T15:26:04.523Z,15.13
2023-05-16T15:28:31.103Z,15.16
2023-05-16T15:30:57.617Z,15.24
2023-05-16T15:33:24.132Z,15.36
2023-05-16T15:35:52.029Z,15.31
2023-05-16T15:38:18.488Z,15.30
2023-05-16T15:40:44.997Z,15.23
2023-05-16T15:43:11.421Z,15.16
2023-05-16T15:45:40.107Z,15.13
2023-05-16T15:48:07.223Z,14.91
2023-05-16T15:50:33.962Z,14.84
2023-05-16T15:53:00.726Z,14.70
2023-05-16T15:55:27.547Z,14.65
2023-05-16T15:57:57.340Z,14.55
2023-05-16T16:00:24.900Z,14.34
2023-05-16T16:02:51.884Z,14.18
2023-05-16T16:05:18.628Z,14.10
2023-05-16T16:07:45.748Z,14.05
2023-05-16T16:10:12.793Z,13.97
2023-05-16T16:12:39.886Z,13.88
2023-05-16T16:15:07.496Z,13.76
2023-05-16T16:17:34.107Z,13.81
2023-05-16T16:20:01.087Z,13.75
2023-05-16T16:22:27.709Z,13.62
2023-05-16T16:24:54.330Z,13.64
2023-05-16T16:27:21.212Z,13.66
2023-05-16T16:29:47.665Z,13.66
2023-05-16T16:32:14.560Z,13.63
2023-05-16T16:34:41.109Z,13.63
2023-05-16T16:37:10.007Z,13.57
2023-05-16T16:39:36.563Z,13.61
2023-05-16T16:42:03.152Z,13.64
2023-05-16T16:44:29.869Z,13.64
2023-05-16T16:46:56.599Z,13.68
2023-05-16T16:49:23.233Z,13.70
2023-05-16T16:51:50.147Z,13.80
2023-05-16T16:54:16.802Z,13.83
2023-05-16T16:56:43.372Z,13.93
2023-05-16T16:59:10.093Z,13.96
2023-05-16T17:01:37.006Z,13.98
2023-05-16T17:04:04.445Z,14.06
2023-05-16T17:06:31.129Z,14.04
2023-05-16T17:09:02.269Z,13.98
2023-05-16T17:11:30.144Z,13.89
2023-05-16T17:13:59.866Z,13.79
2023-05-16T17:16:28.786Z,13.81
2023-05-16T17:18:56.266Z,13.79
2023-05-16T17:21:22.867Z,13.73
2023-05-16T17:23:52.334Z,13.67
2023-05-16T17:26:19.195Z,13.63
2023-05-16T17:28:48.505Z,13.60
2023-05-16T17:31:15.208Z,13.55
2023-05-16T17:33:43.911Z,13.51
2023-05-16T17:36:10.904Z,13.52
2023-05-16T17:38:37.701Z,13.51
2023-05-16T17:41:04.766Z,13.49
2023-05-16T17:43:31.712Z,13.39
2023-05-16T17:45:58.644Z,13.33
2023-05-16T17:48:25.340Z,13.21
2023-05-16T17:50:52.175Z,13.16
2023-05-16T17:53:19.457Z,13.23
2023-05-16T17:55:46.507Z,13.26
2023-05-16T17:58:19.268Z,13.25
2023-05-16T18:00:48.895Z,13.29
2023-05-16T18:03:15.878Z,13.24
2023-05-16T18:05:42.516Z,13.27
2023-05-16T18:08:09.124Z,13.29
2023-05-16T18:10:50.416Z,13.28
2023-05-16T18:13:18.023Z,13.28
2023-05-16T18:15:44.789Z,13.33
2023-05-16T18:18:11.807Z,13.39
2023-05-16T18:20:38.448Z,13.41
2023-05-16T18:23:05.385Z,13.28
2023-05-16T18:25:32.209Z,13.22
2023-05-16T18:27:58.794Z,13.17
2023-05-16T18:30:26.315Z,13.07
2023-05-16T18:32:53.002Z,12.95
2023-05-16T18:35:19.651Z,12.90
2023-05-16T18:37:46.727Z,12.83
2023-05-16T18:40:13.784Z,12.78
2023-05-16T18:42:40.539Z,12.65
2023-05-16T18:45:08.285Z,12.55
2023-05-16T18:47:34.947Z,12.49
2023-05-16T18:50:01.765Z,12.48
2023-05-16T18:52:28.419Z,12.38
2023-05-16T18:54:54.943Z,12.31
2023-05-16T18:57:21.744Z,12.28
2023-05-16T18:59:49.852Z,12.22
2023-05-16T19:02:20.553Z,12.11
2023-05-16T19:05:01.313Z,12.05
2023-05-16T19:07:28.731Z,11.95
2023-05-16T19:09:56.003Z,11.88
2023-05-16T19:12:22.987Z,11.81
2023-05-16T19:14:49.643Z,11.75
2023-05-16T19:17:16.390Z,11.66
2023-05-16T19:19:43.287Z,11.59
2023-05-16T19:22:09.879Z,11.52
2023-05-16T19:24:36.604Z,11.45
2023-05-16T19:27:04.152Z,11.35
2023-05-16T19:29:30.851Z,11.33
2023-05-16T19:31:57.746Z,11.25
2023-05-16T19:34:26.549Z,11.22
2023-05-16T19:36:53.457Z,11.22
2023-05-16T19:39:19.993Z,11.11
2023-05-16T19:41:51.609Z,11.09
2023-05-16T19:44:18.901Z,11.01
2023-05-16T19:46:45.491Z,10.94
2023-05-16T19:49:11.956Z,10.88
2023-05-16T19:51:41.840Z,10.81
2023-05-16T19:54:08.864Z,10.75
2023-05-16T19:56:35.856Z,10.69
2023-05-16T19:59:02.713Z,10.67
2023-05-16T20:01:29.704Z,10.62
2023-05-16T20:03:56.279Z,10.58
2023-05-16T20:06:22.832Z,10.58
2023-05-16T20:08:49.537Z,10.53
2023-05-16T20:11:16.080Z,10.53
2023-05-16T20:13:42.585Z,10.52
2023-05-16T20:16:09.380Z,10.50
2023-05-16T20:18:36.353Z,10.51
2023-05-16T20:21:03.311Z,10.49
2023-05-16T20:23:29.992Z,10.50
2023-05-16T20:25:56.807Z,10.48
2023-05-16T20:28:23.349Z,10.48
2023-05-16T20:30:49.997Z,10.45
2023-05-16T20:33:16.731Z,10.42
2023-05-16T20:35:43.415Z,10.36
2023-05-16T20:38:10.183Z,10.27
2023-05-16T20:40:36.891Z,10.22
2023-05-16T20:43:03.488Z,10.15
2023-05-16T20:47:58.043Z,10.03
2023-05-16T20:50:24.569Z,10.00
2023-05-16T20:52:51.273Z,9.92
2023-05-16T20:55:17.915Z,9.88
2023-05-16T20:57:44.442Z,9.84
2023-05-16T21:00:11.542Z,9.79
2023-05-16T21:02:38.043Z,9.78
2023-05-16T21:05:23.201Z,9.75
2023-05-16T21:07:51.359Z,9.72
2023-05-16T21:10:18.030Z,9.67
2023-05-16T21:12:44.699Z,9.63
2023-05-16T21:15:11.498Z,9.53
2023-05-16T21:17:39.641Z,9.47
2023-05-16T21:20:07.054Z,9.42
2023-05-16T21:22:33.590Z,9.38
2023-05-16T21:25:00.057Z,9.35
2023-05-16T21:27:26.558Z,9.31
2023-05-16T21:29:53.121Z,9.29
2023-05-16T21:32:19.673Z,9.25
2023-05-16T21:34:46.244Z,9.24
2023-05-16T21:37:12.920Z,9.19
2023-05-16T21:39:39.515Z,9.16
2023-05-16T21:42:06.260Z,9.10
2023-05-16T21:44:32.785Z,9.09
2023-05-16T21:46:59.393Z,9.09
2023-05-16T21:49:26.036Z,9.07
2023-05-16T21:51:52.538Z,9.04
2023-05-16T21:54:19.073Z,8.98
2023-05-16T21:56:45.678Z,8.96
2023-05-16T21:59:13.832Z,8.91
2023-05-16T22:01:40.332Z,8.88
2023-05-16T22:04:06.989Z,8.87
2023-05-16T22:06:33.615Z,8.82
2023-05-16T22:09:01.595Z,8.79
2023-05-16T22:11:28.628Z,8.74
2023-05-16T22:13:55.179Z,8.72
2023-05-16T22:16:21.822Z,8.67
2023-05-16T22:18:48.499Z,8.62
2023-05-16T22:21:16.387Z,8.59
2023-05-16T22:23:43.017Z,8.57
2023-05-16T22:26:09.560Z,8.53
2023-05-16T22:28:36.168Z,8.51
2023-05-16T22:31:02.857Z,8.48
2023-05-16T22:33:29.891Z,8.46
2023-05-16T22:35:56.854Z,8.43
2023-05-16T22:38:23.572Z,8.42
2023-05-16T22:40:50.138Z,8.38
2023-05-16T22:43:16.646Z,8.36
2023-05-16T22:45:43.389Z,8.34
2023-05-16T22:48:09.973Z,8.31
2023-05-16T22:50:36.669Z,8.27
2023-05-16T22:53:03.479Z,8.23
2023-05-16T22:55:30.304Z,8.23
2023-05-16T22:57:59.902Z,8.21
2023-05-16T23:00:26.526Z,8.16
2023-05-16T23:02:53.224Z,8.13
2023-05-16T23:05:19.951Z,8.10
2023-05-16T23:07:46.836Z,8.09
2023-05-16T23:10:13.428Z,8.08
2023-05-16T23:12:40.016Z,8.05
2023-05-16T23:15:10.053Z,8.04
2023-05-16T23:17:39.756Z,8.03
2023-05-16T23:20:07.306Z,8.02
2023-05-16T23:22:33.930Z,7.96
2023-05-16T23:25:00.670Z,7.92
2023-05-16T23:27:27.288Z,7.91
2023-05-16T23:29:53.840Z,7.89
2023-05-16T23:32:20.434Z,7.87
2023-05-16T23:34:47.062Z,7.84
2023-05-16T23:37:13.861Z,7.82
2023-05-16T23:39:41.083Z,7.82
2023-05-16T23:42:07.768Z,7.75
2023-05-16T23:44:34.838Z,7.73
2023-05-16T23:47:01.334Z,7.73
2023-05-16T23:49:27.851Z,7.70
2023-05-16T23:51:57.915Z,7.68
2023-05-16T23:54:25.874Z,7.66
2023-05-16T23:56:52.476Z,7.64
2023-05-16T23:59:19.168Z,7.58
